ADDS METAR Data INFO
IDs: Format: Raw Decoded Include TAF

Data at: 2252 UTC 22 Jun 2018

KPRB 222153Z AUTO 00000KT 10SM CLR 38/02 A2983 RMK AO2 SLP091 T03780017 $
KPRB 222053Z AUTO 00000KT 10SM CLR 37/03 A2986 RMK AO2 SLP100 T03720028 58027 $
KPRB 221953Z AUTO 00000KT 10SM CLR 36/03 A2989 RMK AO2 SLP110 T03560033 $
KPRB 221853Z AUTO VRB03KT 10SM CLR 32/06 A2991 RMK AO2 SLP120 T03220061 $
KPRB 221753Z AUTO 30005KT 10SM CLR 28/08 A2994 RMK AO2 SLP130 T02830078 10283 20117 58014 $
KPRB 221653Z AUTO 30004KT 10SM CLR 23/11 A2996 RMK AO2 SLP136 T02330106 $
KPRB 221553Z AUTO 00000KT 10SM CLR 18/11 A2997 RMK AO2 SLP143 T01830106 $
KPRB 221453Z AUTO 00000KT 10SM CLR 16/11 A2998 RMK AO2 SLP145 T01560106 53008
KPRB 221353Z AUTO 00000KT 10SM CLR 13/11 A2997 RMK AO2 SLP142 T01280106
KPRB 221253Z AUTO 00000KT 10SM CLR 12/09 A2996 RMK AO2 SLP137 T01220094
KPRB 221153Z AUTO 32003KT 10SM CLR 12/09 A2995 RMK AO2 SLP134 T01220094 10200 20122 53001
KPRB 221053Z AUTO 33004KT 10SM CLR 13/08 A2995 RMK AO2 SLP133 T01280083
KPRB 220953Z AUTO 00000KT 10SM CLR 14/09 A2995 RMK AO2 SLP132 T01440094
KPRB 220853Z AUTO 28003KT 10SM CLR 14/09 A2995 RMK AO2 SLP134 T01440094 51004
KPRB 220753Z AUTO 31004KT 10SM CLR 17/09 A2995 RMK AO2 SLP134 T01670094 403780106
KPRB 220653Z AUTO 30008KT 10SM CLR 18/09 A2994 RMK AO2 SLP132 T01830094
KPRB 220553Z AUTO 10SM CLR 20/09 A2994 RMK AO2 SLP130 T02000089 10378 20200 51016
KPRB 220453Z AUTO 32014G21KT 10SM CLR 22/07 A2993 RMK AO2 SLP128 T02220072
KPRB 220353Z AUTO 30011KT 10SM CLR 24/04 A2990 RMK AO2 SLP117 T02440044
KPRB 220253Z AUTO 31013KT 10SM CLR 28/00 A2989 RMK AO2 SLP114 T02780000 53006
KPRB 220153Z AUTO 31013KT 10SM CLR 32/01 A2988 RMK AO2 SLP109 T03170011
KPRB 220053Z AUTO 31013KT 10SM CLR 36/M02 A2986 RMK AO2 SLP103 T03611022
KPRB 212353Z AUTO 32012KT 10SM CLR 38/01 A2987 RMK AO2 SLP106 T03780011 10378 20272 56017
KPRB 212253Z AUTO 32007KT 10SM CLR 38/03 A2988 RMK AO2 SLP110 T03780033
KPRB 212153Z AUTO 32007G15KT 10SM CLR 37/04 A2991 RMK AO2 SLP117 T03670044
KPRB 212053Z AUTO 30005KT 10SM CLR 35/02 A2993 RMK AO2 SLP125 T03500022 58016
KPRB 211953Z AUTO 33007KT 10SM CLR 33/02 A2994 RMK AO2 SLP130 T03330022
KPRB 211853Z AUTO 32010KT 10SM CLR 31/02 A2996 RMK AO2 SLP138 T03060017
KPRB 211753Z AUTO 34009KT 10SM CLR 27/04 A2997 RMK AO2 SLP142 T02670044 10267 20106 58010
KPRB 211653Z AUTO 33009KT 10SM CLR 23/08 A2999 RMK AO2 SLP148 T02280083
KPRB 211553Z AUTO VRB04KT 10SM CLR 18/09 A2999 RMK AO2 SLP150 T01780094
KPRB 211453Z AUTO 35003KT 10SM CLR 14/10 A3000 RMK AO2 SLP153 T01440100 51008
KPRB 211353Z AUTO 34003KT 10SM CLR 12/09 A3000 RMK AO2 SLP152 T01220094
KPRB 211253Z AUTO 00000KT 10SM CLR 11/08 A2999 RMK AO2 SLP149 T01060078
KPRB 211153Z AUTO 30003KT 10SM CLR 12/08 A2998 RMK AO2 SLP143 T01170083 10189 20117 51004
KPRB 211053Z AUTO 31003KT 10SM CLR 12/09 A2998 RMK AO2 SLP142 T01220089